Sonny C — WDF5921 — position and weather

sailwx.info

Track history (hours):
 
Tides and Currents Weather Stations Pressure Air Temp Water Temp Dewpoint Dewpoint Depression Visibility Wind Speed Wind Dir Waves Ship Positions

Sonny C

Owner: W Brewster LLC, Venice, LA. More information available from US FCC via Universal Licensing System and Coast Guard Vessel Documentation Center.

Last reported at 2014-Oct-01 07:34 UTC. Time now 2014-Oct-01 08:15 UTC.
Position N 29°32' W 091°15'.

Length 21 m; draft 1.5 m.

Type: Tug. MMSI: 367468710.

Date/timePositionNaut miles runAvg speedWind from/ knotsBaromVisibWave heightAir tempDewpointWater temp
2014-Oct-01 07:34N 29°32' W 091°15'0 0.0
2014-Oct-01 06:34N 29°32' W 091°15'0 0.0
2014-Oct-01 05:34N 29°32' W 091°15'0 0.0
2014-Oct-01 04:34N 29°32' W 091°15'0 0.0
2014-Oct-01 03:34N 29°32' W 091°15'0 0.0
2014-Oct-01 02:33N 29°32' W 091°15'0 0.0
2014-Oct-01 01:34N 29°32' W 091°15'0 0.0
2014-Oct-01 00:34N 29°32' W 091°15'0 0.0
2014-Sep-30 23:34N 29°32' W 091°15'1 0.6
2014-Sep-30 22:34N 29°33' W 091°15'7 6.7
2014-Sep-30 21:33N 29°40' W 091°14'1 1.4
2014-Sep-30 20:34N 29°38' W 091°14'5 4.9
2014-Sep-30 19:33N 29°33' W 091°14'1 1.1
2014-Sep-30 18:34N 29°33' W 091°15'0 0.0
2014-Sep-30 17:34N 29°33' W 091°15'0 0.0
2014-Sep-30 16:34N 29°33' W 091°15'0 0.0
2014-Sep-30 15:33N 29°33' W 091°15'4 4.3
2014-Sep-30 14:34N 29°37' W 091°15'3 3.2
2014-Sep-30 13:34N 29°40' W 091°14'5 5.1
2014-Sep-30 12:34N 29°35' W 091°14'2 2.5
2014-Sep-30 11:34N 29°33' W 091°15'0 0.0
2014-Sep-30 10:34N 29°33' W 091°15'0 0.0
2014-Sep-30 09:34N 29°33' W 091°15'0 0.0
2014-Sep-30 08:34N 29°33' W 091°15'0 0.0
2014-Sep-30 07:34N 29°33' W 091°15'0 0.0
2014-Sep-30 06:34N 29°33' W 091°15'0 0.0
2014-Sep-30 05:34N 29°33' W 091°15'0 0.0
2014-Sep-30 04:34N 29°33' W 091°15'0 0.0
2014-Sep-30 03:34N 29°33' W 091°15'0 0.0
2014-Sep-30 02:34N 29°33' W 091°15'0 0.0
2014-Sep-30 01:34N 29°33' W 091°15'0 0.0
2014-Sep-30 00:34N 29°33' W 091°15'0 0.0
2014-Sep-29 23:34N 29°33' W 091°15'0 0.0
2014-Sep-29 22:34N 29°33' W 091°15'0 0.0
2014-Sep-29 21:34N 29°33' W 091°15'0 0.0
2014-Sep-29 20:34N 29°33' W 091°15'0 0.3
2014-Sep-29 19:34N 29°33' W 091°15'0 0.3
2014-Sep-29 18:34N 29°33' W 091°15'0 0.0
2014-Sep-29 17:34N 29°33' W 091°15'0 0.0
2014-Sep-29 16:34N 29°33' W 091°15'0 0.0
2014-Sep-29 15:33N 29°33' W 091°15'1 0.6
2014-Sep-29 14:34N 29°32' W 091°15'0 0.2
2014-Sep-29 13:33N 29°32' W 091°15'0 0.1
2014-Sep-29 12:34N 29°32' W 091°15'0 0.1
2014-Sep-29 11:34N 29°32' W 091°15'0 0.0
2014-Sep-29 10:34N 29°32' W 091°15'0 0.0
2014-Sep-29 09:34N 29°32' W 091°15'0 0.0
2014-Sep-29 08:33N 29°32' W 091°15'0 0.0
2014-Sep-29 07:34N 29°32' W 091°15'0 0.0
2014-Sep-29 06:33N 29°32' W 091°15'0 0.0
2014-Sep-29 05:34N 29°32' W 091°15'0 0.0
2014-Sep-29 04:34N 29°32' W 091°15'0 0.0
2014-Sep-29 03:34N 29°32' W 091°15'0 0.0
2014-Sep-29 02:34N 29°32' W 091°15'0 0.0
2014-Sep-29 01:34N 29°32' W 091°15'0 0.0
2014-Sep-29 00:34N 29°32' W 091°15'0 0.0
2014-Sep-28 23:34N 29°32' W 091°15'0 0.0
2014-Sep-28 22:34N 29°32' W 091°15'0 0.0
2014-Sep-28 21:33N 29°32' W 091°15'0 0.0
2014-Sep-28 20:34N 29°32' W 091°15'0 0.0
2014-Sep-28 19:33N 29°32' W 091°15'0 0.0
2014-Sep-28 18:34N 29°32' W 091°15'0 0.0
2014-Sep-28 17:34N 29°32' W 091°15'0 0.0
2014-Sep-28 16:33N 29°32' W 091°15'0 0.0
2014-Sep-28 15:34N 29°32' W 091°15'0 0.0
2014-Sep-28 14:34N 29°32' W 091°15'0 0.0
2014-Sep-28 13:34N 29°32' W 091°15'0 0.0
2014-Sep-28 12:34N 29°32' W 091°15'0 0.0
2014-Sep-28 11:34N 29°32' W 091°15'0 0.0
2014-Sep-28 10:33N 29°32' W 091°15'0 0.0
2014-Sep-28 09:34N 29°32' W 091°15'0 0.0
2014-Sep-28 08:34N 29°32' W 091°15'0 0.0
2014-Sep-28 07:34N 29°32' W 091°15'0 0.0
2014-Sep-28 06:34N 29°32' W 091°15'0 0.0
2014-Sep-28 05:34N 29°32' W 091°15'0 0.0
2014-Sep-28 04:34N 29°32' W 091°15'0 0.0
2014-Sep-28 03:34N 29°32' W 091°15'0 0.0
2014-Sep-28 02:34N 29°32' W 091°15'0 0.0
2014-Sep-28 01:34N 29°32' W 091°15'0 0.0
2014-Sep-28 00:34N 29°32' W 091°15'0 0.0
2014-Sep-27 23:33N 29°32' W 091°15'0 0.0
2014-Sep-27 22:34N 29°32' W 091°15'0 0.0
2014-Sep-27 21:33N 29°32' W 091°15'0 0.0
2014-Sep-27 20:34N 29°32' W 091°15'5 4.7
2014-Sep-27 19:34N 29°37' W 091°15'3 3.2
2014-Sep-27 18:34N 29°40' W 091°14'3 3.1
2014-Sep-27 17:34N 29°37' W 091°15'5 4.7
2014-Sep-27 16:33N 29°32' W 091°15'0 0.0
2014-Sep-27 15:33N 29°32' W 091°15'0 0.0
2014-Sep-27 14:34N 29°32' W 091°15'0 0.0
2014-Sep-27 13:33N 29°32' W 091°15'0 0.0
2014-Sep-27 12:34N 29°32' W 091°15'0 0.0
2014-Sep-27 11:33N 29°32' W 091°15'0 0.0
2014-Sep-27 10:33N 29°32' W 091°15'0 0.0
2014-Sep-27 09:34N 29°32' W 091°15'0 0.0
2014-Sep-27 08:34N 29°32' W 091°15'0 0.0
2014-Sep-27 07:34N 29°32' W 091°15'0 0.0
2014-Sep-27 06:33N 29°32' W 091°15'0 0.0
2014-Sep-27 05:34N 29°32' W 091°15'0 0.0
2014-Sep-27 04:34N 29°32' W 091°15'0 0.0
2014-Sep-27 03:34N 29°32' W 091°15'0 0.0
2014-Sep-27 02:34N 29°32' W 091°15'0 0.0
2014-Sep-27 01:34N 29°32' W 091°15'0 0.0
2014-Sep-27 00:34N 29°32' W 091°15'0 0.0
2014-Sep-26 23:34N 29°32' W 091°15'0 0.0
2014-Sep-26 22:34N 29°32' W 091°15'0 0.0
2014-Sep-26 21:34N 29°32' W 091°15'0 0.0
2014-Sep-26 20:34N 29°32' W 091°15'0 0.0
2014-Sep-26 19:33N 29°32' W 091°15'0 0.0
2014-Sep-26 18:32N 29°32' W 091°15'0 0.0
2014-Sep-26 17:33N 29°32' W 091°15'0 0.0
2014-Sep-26 16:33N 29°32' W 091°15'0 0.0
2014-Sep-26 15:34N 29°32' W 091°15'0 0.0
2014-Sep-26 14:34N 29°32' W 091°15'0 0.0
2014-Sep-26 13:34N 29°32' W 091°15'0 0.0
2014-Sep-26 12:34N 29°32' W 091°15'0 0.0
2014-Sep-26 11:33N 29°32' W 091°15'0 0.0
2014-Sep-26 10:34N 29°32' W 091°15'0 0.0
2014-Sep-26 09:34N 29°32' W 091°15'0 0.0
2014-Sep-26 08:33N 29°32' W 091°15'0 0.0
2014-Sep-26 07:33N 29°32' W 091°15'0 0.0
2014-Sep-26 06:33N 29°32' W 091°15'0 0.0
2014-Sep-26 05:33N 29°32' W 091°15'0 0.0
2014-Sep-26 04:34N 29°32' W 091°15'0 0.0
2014-Sep-26 03:34N 29°32' W 091°15'0 0.0
2014-Sep-26 02:34N 29°32' W 091°15'0 0.0
2014-Sep-26 01:33N 29°32' W 091°15'0 0.0
2014-Sep-26 00:34N 29°32' W 091°15'0 0.0
2014-Sep-25 23:34N 29°32' W 091°15'0 0.0
2014-Sep-25 22:34N 29°32' W 091°15'0 0.0
2014-Sep-25 21:34N 29°32' W 091°15'0 0.0
2014-Sep-25 20:34N 29°32' W 091°15'0 0.0
2014-Sep-25 19:33N 29°32' W 091°15'0 0.0
2014-Sep-25 18:33N 29°32' W 091°15'0 0.0
2014-Sep-25 17:33N 29°32' W 091°15'0 0.0
2014-Sep-25 16:33N 29°32' W 091°15'0 0.0
2014-Sep-25 15:33N 29°32' W 091°15'0 0.0
2014-Sep-25 14:33N 29°32' W 091°15'0 0.0
2014-Sep-25 13:33N 29°32' W 091°15'0 0.0
2014-Sep-25 12:33N 29°32' W 091°15'0 0.0
2014-Sep-25 11:33N 29°32' W 091°15'0 0.0
2014-Sep-25 10:33N 29°32' W 091°15'0 0.0
2014-Sep-25 09:34N 29°32' W 091°15'0 0.0
2014-Sep-25 08:34N 29°32' W 091°15'0 0.0
2014-Sep-25 07:34N 29°32' W 091°15'0 0.0
2014-Sep-25 06:33N 29°32' W 091°15'0 0.0
2014-Sep-25 05:34N 29°32' W 091°15'0 0.0
2014-Sep-25 04:34N 29°32' W 091°15'0 0.0
2014-Sep-25 03:34N 29°32' W 091°15'0 0.0
2014-Sep-25 02:34N 29°32' W 091°15'0 0.0
2014-Sep-25 01:34N 29°32' W 091°15'0 0.0
2014-Sep-25 00:33N 29°32' W 091°15'0 0.0
2014-Sep-24 23:34N 29°32' W 091°15'0 0.0
2014-Sep-24 22:33N 29°32' W 091°15'0 0.0
2014-Sep-24 21:33N 29°32' W 091°15'0 0.0
2014-Sep-24 20:34N 29°32' W 091°15'0 0.0
2014-Sep-24 19:34N 29°32' W 091°15'0 0.0
2014-Sep-24 18:33N 29°32' W 091°15'0 0.0
2014-Sep-24 17:34N 29°32' W 091°15'0 0.0
2014-Sep-24 16:34N 29°32' W 091°15'0 0.0
2014-Sep-24 15:33N 29°32' W 091°15'0 0.0
2014-Sep-24 14:34N 29°32' W 091°15'0 0.0
2014-Sep-24 13:33N 29°32' W 091°15'0 0.0
2014-Sep-24 12:33N 29°32' W 091°15'0 0.0
2014-Sep-24 11:34N 29°32' W 091°15'0 0.0
2014-Sep-24 10:34N 29°32' W 091°15'0 0.0
2014-Sep-24 09:34N 29°32' W 091°15'0 0.0
2014-Sep-24 08:33N 29°32' W 091°15'0 0.0
2014-Sep-24 07:34N 29°32' W 091°15'0 0.0
2014-Sep-24 06:33N 29°32' W 091°15'0 0.0
2014-Sep-24 05:34N 29°32' W 091°15'0 0.0
2014-Sep-24 04:34N 29°32' W 091°15'0 0.0
2014-Sep-24 03:34N 29°32' W 091°15'0 0.0
2014-Sep-24 02:34N 29°32' W 091°15'0 0.0
2014-Sep-24 01:34N 29°32' W 091°15'0 0.0
2014-Sep-24 00:33N 29°32' W 091°15'0 0.0
2014-Sep-23 23:34N 29°32' W 091°15'0 0.0
2014-Sep-23 22:33N 29°32' W 091°15'0 0.0
2014-Sep-23 21:34N 29°32' W 091°15'0 0.0
2014-Sep-23 20:33N 29°32' W 091°15'0 0.0
2014-Sep-23 19:32N 29°32' W 091°15'0 0.0
2014-Sep-23 18:32N 29°32' W 091°15'0 0.0
2014-Sep-23 17:34N 29°32' W 091°15'0 0.0
2014-Sep-23 16:34N 29°32' W 091°15'0 0.0
2014-Sep-23 15:34N 29°32' W 091°15'0 0.0
2014-Sep-23 14:33N 29°32' W 091°15'0 0.0
2014-Sep-23 13:34N 29°32' W 091°15'0 0.0
2014-Sep-23 12:33N 29°32' W 091°15'0 0.0
2014-Sep-23 11:34N 29°32' W 091°15'0 0.0
2014-Sep-23 10:33N 29°32' W 091°15'0 0.0
2014-Sep-23 09:33N 29°32' W 091°15'0 0.0
2014-Sep-23 08:34N 29°32' W 091°15'0 0.0
2014-Sep-23 07:33N 29°32' W 091°15'0 0.0
2014-Sep-23 06:34N 29°32' W 091°15'0 0.0
2014-Sep-23 05:33N 29°32' W 091°15'0 0.0
2014-Sep-23 04:34N 29°32' W 091°15'0 0.0
2014-Sep-23 03:34N 29°32' W 091°15'0 0.0
2014-Sep-23 02:33N 29°32' W 091°15'0 0.0
2014-Sep-23 01:34N 29°32' W 091°15'0 0.0
2014-Sep-23 00:33N 29°32' W 091°15'0 0.0
2014-Sep-22 23:33N 29°32' W 091°15'0 0.1
2014-Sep-22 22:34N 29°32' W 091°15'0 0.1
2014-Sep-22 21:33N 29°32' W 091°15'0 0.0
2014-Sep-22 20:34N 29°32' W 091°15'0 0.1
2014-Sep-22 19:34N 29°32' W 091°15'0 0.1
2014-Sep-22 18:33N 29°32' W 091°15'0 0.0
2014-Sep-22 17:33N 29°32' W 091°15'0 0.0
2014-Sep-22 16:34N 29°32' W 091°15'0 0.0
2014-Sep-22 15:33N 29°32' W 091°15'0 0.0
2014-Sep-22 14:32N 29°32' W 091°15'0 0.0
2014-Sep-22 13:33N 29°32' W 091°15'0 0.0
2014-Sep-22 12:34N 29°32' W 091°15'0 0.0
2014-Sep-22 11:33N 29°32' W 091°15'0 0.0
2014-Sep-22 10:33N 29°32' W 091°15'0 0.0
2014-Sep-22 09:33N 29°32' W 091°15'0 0.0
2014-Sep-22 08:34N 29°32' W 091°15'0 0.0
2014-Sep-22 07:34N 29°32' W 091°15'0 0.0
2014-Sep-22 06:34N 29°32' W 091°15'0 0.0
2014-Sep-22 05:34N 29°32' W 091°15'0 0.0
2014-Sep-22 04:34N 29°32' W 091°15'0 0.0
2014-Sep-22 03:34N 29°32' W 091°15'0 0.0
2014-Sep-22 02:34N 29°32' W 091°15'0 0.0
2014-Sep-22 01:34N 29°32' W 091°15'0 0.0
2014-Sep-22 00:34N 29°32' W 091°15'0 0.0
2014-Sep-21 23:32N 29°32' W 091°15'0 0.0
2014-Sep-21 22:34N 29°32' W 091°15'0 0.0
2014-Sep-21 21:34N 29°32' W 091°15'0 0.0
2014-Sep-21 20:34N 29°32' W 091°15'0 0.0
2014-Sep-21 19:34N 29°32' W 091°15'0 0.0
2014-Sep-21 18:33N 29°32' W 091°15'0 0.0
2014-Sep-21 17:33N 29°32' W 091°15'0 0.0
2014-Sep-21 16:33N 29°32' W 091°15'0 0.0
2014-Sep-21 15:34N 29°32' W 091°15'0 0.0
2014-Sep-21 14:34N 29°32' W 091°15'0 0.0
2014-Sep-21 13:34N 29°32' W 091°15'0 0.0
2014-Sep-21 12:33N 29°32' W 091°15'0 0.0
2014-Sep-21 11:34N 29°32' W 091°15'0 0.0
2014-Sep-21 10:33N 29°32' W 091°15'0 0.0
2014-Sep-21 09:34N 29°32' W 091°15'0 0.0
2014-Sep-21 08:34N 29°32' W 091°15'0 0.0
2014-Sep-21 07:34N 29°32' W 091°15'  
Track history (hours):
 
Tides and Currents Weather Stations Pressure Air Temp Water Temp Dewpoint Dewpoint Depression Visibility Wind Speed Wind Dir Waves Ship Positions

Sonny C

Owner: W Brewster LLC, Venice, LA. More information available from US FCC via Universal Licensing System and Coast Guard Vessel Documentation Center.

Last reported at 2014-Oct-01 07:34 UTC. Time now 2014-Oct-01 08:15 UTC.
Position N 29°32' W 091°15'.

Length 21 m; draft 1.5 m.

Type: Tug. MMSI: 367468710.

Date/timePositionNaut miles runAvg speedWind from/ knotsBaromVisibWave heightAir tempDewpointWater temp
2014-Oct-01 07:34N 29°32' W 091°15'0 0.0
2014-Oct-01 06:34N 29°32' W 091°15'0 0.0
2014-Oct-01 05:34N 29°32' W 091°15'0 0.0
2014-Oct-01 04:34N 29°32' W 091°15'0 0.0
2014-Oct-01 03:34N 29°32' W 091°15'0 0.0
2014-Oct-01 02:33N 29°32' W 091°15'0 0.0
2014-Oct-01 01:34N 29°32' W 091°15'0 0.0
2014-Oct-01 00:34N 29°32' W 091°15'0 0.0
2014-Sep-30 23:34N 29°32' W 091°15'1 0.6
2014-Sep-30 22:34N 29°33' W 091°15'7 6.7
2014-Sep-30 21:33N 29°40' W 091°14'1 1.4
2014-Sep-30 20:34N 29°38' W 091°14'5 4.9
2014-Sep-30 19:33N 29°33' W 091°14'1 1.1
2014-Sep-30 18:34N 29°33' W 091°15'0 0.0
2014-Sep-30 17:34N 29°33' W 091°15'0 0.0
2014-Sep-30 16:34N 29°33' W 091°15'0 0.0
2014-Sep-30 15:33N 29°33' W 091°15'4 4.3
2014-Sep-30 14:34N 29°37' W 091°15'3 3.2
2014-Sep-30 13:34N 29°40' W 091°14'5 5.1
2014-Sep-30 12:34N 29°35' W 091°14'2 2.5
2014-Sep-30 11:34N 29°33' W 091°15'0 0.0
2014-Sep-30 10:34N 29°33' W 091°15'0 0.0
2014-Sep-30 09:34N 29°33' W 091°15'0 0.0
2014-Sep-30 08:34N 29°33' W 091°15'0 0.0
2014-Sep-30 07:34N 29°33' W 091°15'0 0.0
2014-Sep-30 06:34N 29°33' W 091°15'0 0.0
2014-Sep-30 05:34N 29°33' W 091°15'0 0.0
2014-Sep-30 04:34N 29°33' W 091°15'0 0.0
2014-Sep-30 03:34N 29°33' W 091°15'0 0.0
2014-Sep-30 02:34N 29°33' W 091°15'0 0.0
2014-Sep-30 01:34N 29°33' W 091°15'0 0.0
2014-Sep-30 00:34N 29°33' W 091°15'0 0.0
2014-Sep-29 23:34N 29°33' W 091°15'0 0.0
2014-Sep-29 22:34N 29°33' W 091°15'0 0.0
2014-Sep-29 21:34N 29°33' W 091°15'0 0.0
2014-Sep-29 20:34N 29°33' W 091°15'0 0.3
2014-Sep-29 19:34N 29°33' W 091°15'0 0.3
2014-Sep-29 18:34N 29°33' W 091°15'0 0.0
2014-Sep-29 17:34N 29°33' W 091°15'0 0.0
2014-Sep-29 16:34N 29°33' W 091°15'0 0.0
2014-Sep-29 15:33N 29°33' W 091°15'1 0.6
2014-Sep-29 14:34N 29°32' W 091°15'0 0.2
2014-Sep-29 13:33N 29°32' W 091°15'0 0.1
2014-Sep-29 12:34N 29°32' W 091°15'0 0.1
2014-Sep-29 11:34N 29°32' W 091°15'0 0.0
2014-Sep-29 10:34N 29°32' W 091°15'0 0.0
2014-Sep-29 09:34N 29°32' W 091°15'0 0.0
2014-Sep-29 08:33N 29°32' W 091°15'0 0.0
2014-Sep-29 07:34N 29°32' W 091°15'0 0.0
2014-Sep-29 06:33N 29°32' W 091°15'0 0.0
2014-Sep-29 05:34N 29°32' W 091°15'0 0.0
2014-Sep-29 04:34N 29°32' W 091°15'0 0.0
2014-Sep-29 03:34N 29°32' W 091°15'0 0.0
2014-Sep-29 02:34N 29°32' W 091°15'0 0.0
2014-Sep-29 01:34N 29°32' W 091°15'0 0.0
2014-Sep-29 00:34N 29°32' W 091°15'0 0.0
2014-Sep-28 23:34N 29°32' W 091°15'0 0.0
2014-Sep-28 22:34N 29°32' W 091°15'0 0.0
2014-Sep-28 21:33N 29°32' W 091°15'0 0.0
2014-Sep-28 20:34N 29°32' W 091°15'0 0.0
2014-Sep-28 19:33N 29°32' W 091°15'0 0.0
2014-Sep-28 18:34N 29°32' W 091°15'0 0.0
2014-Sep-28 17:34N 29°32' W 091°15'0 0.0
2014-Sep-28 16:33N 29°32' W 091°15'0 0.0
2014-Sep-28 15:34N 29°32' W 091°15'0 0.0
2014-Sep-28 14:34N 29°32' W 091°15'0 0.0
2014-Sep-28 13:34N 29°32' W 091°15'0 0.0
2014-Sep-28 12:34N 29°32' W 091°15'0 0.0
2014-Sep-28 11:34N 29°32' W 091°15'0 0.0
2014-Sep-28 10:33N 29°32' W 091°15'0 0.0
2014-Sep-28 09:34N 29°32' W 091°15'0 0.0
2014-Sep-28 08:34N 29°32' W 091°15'0 0.0
2014-Sep-28 07:34N 29°32' W 091°15'0 0.0
2014-Sep-28 06:34N 29°32' W 091°15'0 0.0
2014-Sep-28 05:34N 29°32' W 091°15'0 0.0
2014-Sep-28 04:34N 29°32' W 091°15'0 0.0
2014-Sep-28 03:34N 29°32' W 091°15'0 0.0
2014-Sep-28 02:34N 29°32' W 091°15'0 0.0
2014-Sep-28 01:34N 29°32' W 091°15'0 0.0
2014-Sep-28 00:34N 29°32' W 091°15'0 0.0
2014-Sep-27 23:33N 29°32' W 091°15'0 0.0
2014-Sep-27 22:34N 29°32' W 091°15'0 0.0
2014-Sep-27 21:33N 29°32' W 091°15'0 0.0
2014-Sep-27 20:34N 29°32' W 091°15'5 4.7
2014-Sep-27 19:34N 29°37' W 091°15'3 3.2
2014-Sep-27 18:34N 29°40' W 091°14'3 3.1
2014-Sep-27 17:34N 29°37' W 091°15'5 4.7
2014-Sep-27 16:33N 29°32' W 091°15'0 0.0
2014-Sep-27 15:33N 29°32' W 091°15'0 0.0
2014-Sep-27 14:34N 29°32' W 091°15'0 0.0
2014-Sep-27 13:33N 29°32' W 091°15'0 0.0
2014-Sep-27 12:34N 29°32' W 091°15'0 0.0
2014-Sep-27 11:33N 29°32' W 091°15'0 0.0
2014-Sep-27 10:33N 29°32' W 091°15'0 0.0
2014-Sep-27 09:34N 29°32' W 091°15'0 0.0
2014-Sep-27 08:34N 29°32' W 091°15'0 0.0
2014-Sep-27 07:34N 29°32' W 091°15'0 0.0
2014-Sep-27 06:33N 29°32' W 091°15'0 0.0
2014-Sep-27 05:34N 29°32' W 091°15'0 0.0
2014-Sep-27 04:34N 29°32' W 091°15'0 0.0
2014-Sep-27 03:34N 29°32' W 091°15'0 0.0
2014-Sep-27 02:34N 29°32' W 091°15'0 0.0
2014-Sep-27 01:34N 29°32' W 091°15'0 0.0
2014-Sep-27 00:34N 29°32' W 091°15'0 0.0
2014-Sep-26 23:34N 29°32' W 091°15'0 0.0
2014-Sep-26 22:34N 29°32' W 091°15'0 0.0
2014-Sep-26 21:34N 29°32' W 091°15'0 0.0
2014-Sep-26 20:34N 29°32' W 091°15'0 0.0
2014-Sep-26 19:33N 29°32' W 091°15'0 0.0
2014-Sep-26 18:32N 29°32' W 091°15'0 0.0
2014-Sep-26 17:33N 29°32' W 091°15'0 0.0
2014-Sep-26 16:33N 29°32' W 091°15'0 0.0
2014-Sep-26 15:34N 29°32' W 091°15'0 0.0
2014-Sep-26 14:34N 29°32' W 091°15'0 0.0
2014-Sep-26 13:34N 29°32' W 091°15'0 0.0
2014-Sep-26 12:34N 29°32' W 091°15'0 0.0
2014-Sep-26 11:33N 29°32' W 091°15'0 0.0
2014-Sep-26 10:34N 29°32' W 091°15'0 0.0
2014-Sep-26 09:34N 29°32' W 091°15'0 0.0
2014-Sep-26 08:33N 29°32' W 091°15'0 0.0
2014-Sep-26 07:33N 29°32' W 091°15'0 0.0
2014-Sep-26 06:33N 29°32' W 091°15'0 0.0
2014-Sep-26 05:33N 29°32' W 091°15'0 0.0
2014-Sep-26 04:34N 29°32' W 091°15'0 0.0
2014-Sep-26 03:34N 29°32' W 091°15'0 0.0
2014-Sep-26 02:34N 29°32' W 091°15'0 0.0
2014-Sep-26 01:33N 29°32' W 091°15'0 0.0
2014-Sep-26 00:34N 29°32' W 091°15'0 0.0
2014-Sep-25 23:34N 29°32' W 091°15'0 0.0
2014-Sep-25 22:34N 29°32' W 091°15'0 0.0
2014-Sep-25 21:34N 29°32' W 091°15'0 0.0
2014-Sep-25 20:34N 29°32' W 091°15'0 0.0
2014-Sep-25 19:33N 29°32' W 091°15'0 0.0
2014-Sep-25 18:33N 29°32' W 091°15'0 0.0
2014-Sep-25 17:33N 29°32' W 091°15'0 0.0
2014-Sep-25 16:33N 29°32' W 091°15'0 0.0
2014-Sep-25 15:33N 29°32' W 091°15'0 0.0
2014-Sep-25 14:33N 29°32' W 091°15'0 0.0
2014-Sep-25 13:33N 29°32' W 091°15'0 0.0
2014-Sep-25 12:33N 29°32' W 091°15'0 0.0
2014-Sep-25 11:33N 29°32' W 091°15'0 0.0
2014-Sep-25 10:33N 29°32' W 091°15'0 0.0
2014-Sep-25 09:34N 29°32' W 091°15'0 0.0
2014-Sep-25 08:34N 29°32' W 091°15'0 0.0
2014-Sep-25 07:34N 29°32' W 091°15'0 0.0
2014-Sep-25 06:33N 29°32' W 091°15'0 0.0
2014-Sep-25 05:34N 29°32' W 091°15'0 0.0
2014-Sep-25 04:34N 29°32' W 091°15'0 0.0
2014-Sep-25 03:34N 29°32' W 091°15'0 0.0
2014-Sep-25 02:34N 29°32' W 091°15'0 0.0
2014-Sep-25 01:34N 29°32' W 091°15'0 0.0
2014-Sep-25 00:33N 29°32' W 091°15'0 0.0
2014-Sep-24 23:34N 29°32' W 091°15'0 0.0
2014-Sep-24 22:33N 29°32' W 091°15'0 0.0
2014-Sep-24 21:33N 29°32' W 091°15'0 0.0
2014-Sep-24 20:34N 29°32' W 091°15'0 0.0
2014-Sep-24 19:34N 29°32' W 091°15'0 0.0
2014-Sep-24 18:33N 29°32' W 091°15'0 0.0
2014-Sep-24 17:34N 29°32' W 091°15'0 0.0
2014-Sep-24 16:34N 29°32' W 091°15'0 0.0
2014-Sep-24 15:33N 29°32' W 091°15'0 0.0
2014-Sep-24 14:34N 29°32' W 091°15'0 0.0
2014-Sep-24 13:33N 29°32' W 091°15'0 0.0
2014-Sep-24 12:33N 29°32' W 091°15'0 0.0
2014-Sep-24 11:34N 29°32' W 091°15'0 0.0
2014-Sep-24 10:34N 29°32' W 091°15'0 0.0
2014-Sep-24 09:34N 29°32' W 091°15'0 0.0
2014-Sep-24 08:33N 29°32' W 091°15'0 0.0
2014-Sep-24 07:34N 29°32' W 091°15'0 0.0
2014-Sep-24 06:33N 29°32' W 091°15'0 0.0
2014-Sep-24 05:34N 29°32' W 091°15'0 0.0
2014-Sep-24 04:34N 29°32' W 091°15'0 0.0
2014-Sep-24 03:34N 29°32' W 091°15'0 0.0
2014-Sep-24 02:34N 29°32' W 091°15'0 0.0
2014-Sep-24 01:34N 29°32' W 091°15'0 0.0
2014-Sep-24 00:33N 29°32' W 091°15'0 0.0
2014-Sep-23 23:34N 29°32' W 091°15'0 0.0
2014-Sep-23 22:33N 29°32' W 091°15'0 0.0
2014-Sep-23 21:34N 29°32' W 091°15'0 0.0
2014-Sep-23 20:33N 29°32' W 091°15'0 0.0
2014-Sep-23 19:32N 29°32' W 091°15'0 0.0
2014-Sep-23 18:32N 29°32' W 091°15'0 0.0
2014-Sep-23 17:34N 29°32' W 091°15'0 0.0
2014-Sep-23 16:34N 29°32' W 091°15'0 0.0
2014-Sep-23 15:34N 29°32' W 091°15'0 0.0
2014-Sep-23 14:33N 29°32' W 091°15'0 0.0
2014-Sep-23 13:34N 29°32' W 091°15'0 0.0
2014-Sep-23 12:33N 29°32' W 091°15'0 0.0
2014-Sep-23 11:34N 29°32' W 091°15'0 0.0
2014-Sep-23 10:33N 29°32' W 091°15'0 0.0
2014-Sep-23 09:33N 29°32' W 091°15'0 0.0
2014-Sep-23 08:34N 29°32' W 091°15'0 0.0
2014-Sep-23 07:33N 29°32' W 091°15'0 0.0
2014-Sep-23 06:34N 29°32' W 091°15'0 0.0
2014-Sep-23 05:33N 29°32' W 091°15'0 0.0
2014-Sep-23 04:34N 29°32' W 091°15'0 0.0
2014-Sep-23 03:34N 29°32' W 091°15'0 0.0
2014-Sep-23 02:33N 29°32' W 091°15'0 0.0
2014-Sep-23 01:34N 29°32' W 091°15'0 0.0
2014-Sep-23 00:33N 29°32' W 091°15'0 0.0
2014-Sep-22 23:33N 29°32' W 091°15'0 0.1
2014-Sep-22 22:34N 29°32' W 091°15'0 0.1
2014-Sep-22 21:33N 29°32' W 091°15'0 0.0
2014-Sep-22 20:34N 29°32' W 091°15'0 0.1
2014-Sep-22 19:34N 29°32' W 091°15'0 0.1
2014-Sep-22 18:33N 29°32' W 091°15'0 0.0
2014-Sep-22 17:33N 29°32' W 091°15'0 0.0
2014-Sep-22 16:34N 29°32' W 091°15'0 0.0
2014-Sep-22 15:33N 29°32' W 091°15'0 0.0
2014-Sep-22 14:32N 29°32' W 091°15'0 0.0
2014-Sep-22 13:33N 29°32' W 091°15'0 0.0
2014-Sep-22 12:34N 29°32' W 091°15'0 0.0
2014-Sep-22 11:33N 29°32' W 091°15'0 0.0
2014-Sep-22 10:33N 29°32' W 091°15'0 0.0
2014-Sep-22 09:33N 29°32' W 091°15'0 0.0
2014-Sep-22 08:34N 29°32' W 091°15'0 0.0
2014-Sep-22 07:34N 29°32' W 091°15'0 0.0
2014-Sep-22 06:34N 29°32' W 091°15'0 0.0
2014-Sep-22 05:34N 29°32' W 091°15'0 0.0
2014-Sep-22 04:34N 29°32' W 091°15'0 0.0
2014-Sep-22 03:34N 29°32' W 091°15'0 0.0
2014-Sep-22 02:34N 29°32' W 091°15'0 0.0
2014-Sep-22 01:34N 29°32' W 091°15'0 0.0
2014-Sep-22 00:34N 29°32' W 091°15'0 0.0
2014-Sep-21 23:32N 29°32' W 091°15'0 0.0
2014-Sep-21 22:34N 29°32' W 091°15'0 0.0
2014-Sep-21 21:34N 29°32' W 091°15'0 0.0
2014-Sep-21 20:34N 29°32' W 091°15'0 0.0
2014-Sep-21 19:34N 29°32' W 091°15'0 0.0
2014-Sep-21 18:33N 29°32' W 091°15'0 0.0
2014-Sep-21 17:33N 29°32' W 091°15'0 0.0
2014-Sep-21 16:33N 29°32' W 091°15'0 0.0
2014-Sep-21 15:34N 29°32' W 091°15'0 0.0
2014-Sep-21 14:34N 29°32' W 091°15'0 0.0
2014-Sep-21 13:34N 29°32' W 091°15'0 0.0
2014-Sep-21 12:33N 29°32' W 091°15'0 0.0
2014-Sep-21 11:34N 29°32' W 091°15'0 0.0
2014-Sep-21 10:33N 29°32' W 091°15'0 0.0
2014-Sep-21 09:34N 29°32' W 091°15'0 0.0
2014-Sep-21 08:34N 29°32' W 091°15'0 0.0
2014-Sep-21 07:34N 29°32' W 091°15'  

Dump ship's entire track history